Waverly, Pennsylvania
Current Conditions -  °F | °C
As of 2:54 PM on Saturday 25 Oct 2014 (Local Time) from KAVP Reporting Station
Clear Clear  
Wind Chill: 64°   Ceiling: Unl
Heat Index: 64°   Visibility: 10mi
Dew Point: 42°   Wind: 12mph
Humidity: 45%   Direction: 220°SW
Pressure: 29.7"   Gusts: 23mph
Location:  41.53°N, 75.71°W
Report Text: KAVP 251854Z 22010G20KT 180V240 10SM CLR 18/06 A2970 RMK AO2 SLP057 T01780056
Loading
Personal Weather Stations






























Interactive Weather Map
Tropical Storm Tracking
New forecast layout! Learn more

10-Day Weather Forecast

Advertisements
Track Severe Weather on mobile